sensor_id;sensor_type;location;lat;lon;timestamp;P1;durP1;ratioP1;P2;durP2;ratioP2
50429;SDS011;36359;41.556;-8.418;2023-07-29T00:01:31;4.45;;;2.15;;
50429;SDS011;36359;41.556;-8.418;2023-07-29T00:03:57;3.15;;;1.55;;
50429;SDS011;36359;41.556;-8.418;2023-07-29T00:06:23;5.22;;;1.95;;
50429;SDS011;36359;41.556;-8.418;2023-07-29T00:08:49;5.95;;;2.97;;
50429;SDS011;36359;41.556;-8.418;2023-07-29T00:11:15;6.22;;;2.17;;
50429;SDS011;36359;41.556;-8.418;2023-07-29T00:13:40;6.13;;;3.20;;
50429;SDS011;36359;41.556;-8.418;2023-07-29T00:16:06;6.80;;;3.55;;
50429;SDS011;36359;41.556;-8.418;2023-07-29T00:18:32;7.97;;;3.22;;
50429;SDS011;36359;41.556;-8.418;2023-07-29T00:20:58;4.57;;;1.50;;
50429;SDS011;36359;41.556;-8.418;2023-07-29T00:23:23;5.95;;;3.00;;
50429;SDS011;36359;41.556;-8.418;2023-07-29T00:25:49;6.78;;;3.08;;
50429;SDS011;36359;41.556;-8.418;2023-07-29T00:28:15;5.22;;;2.67;;
50429;SDS011;36359;41.556;-8.418;2023-07-29T00:30:40;8.88;;;3.33;;
50429;SDS011;36359;41.556;-8.418;2023-07-29T00:33:06;6.97;;;3.92;;
50429;SDS011;36359;41.556;-8.418;2023-07-29T00:35:32;6.13;;;3.88;;
50429;SDS011;36359;41.556;-8.418;2023-07-29T00:37:59;3.08;;;1.75;;
50429;SDS011;36359;41.556;-8.418;2023-07-29T00:40:25;5.07;;;2.45;;
50429;SDS011;36359;41.556;-8.418;2023-07-29T00:42:53;5.88;;;1.92;;
50429;SDS011;36359;41.556;-8.418;2023-07-29T00:45:19;7.07;;;2.60;;
50429;SDS011;36359;41.556;-8.418;2023-07-29T00:47:45;6.45;;;3.60;;
50429;SDS011;36359;41.556;-8.418;2023-07-29T00:50:12;4.80;;;3.22;;
50429;SDS011;36359;41.556;-8.418;2023-07-29T00:52:40;5.63;;;3.88;;
50429;SDS011;36359;41.556;-8.418;2023-07-29T00:55:06;8.13;;;4.07;;
50429;SDS011;36359;41.556;-8.418;2023-07-29T00:57:32;5.22;;;2.15;;
50429;SDS011;36359;41.556;-8.418;2023-07-29T00:59:59;6.00;;;2.75;;
50429;SDS011;36359;41.556;-8.418;2023-07-29T01:02:25;5.78;;;2.10;;
50429;SDS011;36359;41.556;-8.418;2023-07-29T01:05:01;7.82;;;3.40;;
50429;SDS011;36359;41.556;-8.418;2023-07-29T01:10:36;6.50;;;2.95;;
50429;SDS011;36359;41.556;-8.418;2023-07-29T01:18:32;5.93;;;2.65;;
50429;SDS011;36359;41.556;-8.418;2023-07-29T01:21:03;6.20;;;2.60;;
50429;SDS011;36359;41.556;-8.418;2023-07-29T01:23:30;4.80;;;1.90;;
50429;SDS011;36359;41.556;-8.418;2023-07-29T01:25:58;7.65;;;3.10;;
50429;SDS011;36359;41.556;-8.418;2023-07-29T01:28:24;4.05;;;1.90;;
50429;SDS011;36359;41.556;-8.418;2023-07-29T01:30:51;5.03;;;2.30;;
50429;SDS011;36359;41.556;-8.418;2023-07-29T01:33:39;5.43;;;2.60;;
50429;SDS011;36359;41.556;-8.418;2023-07-29T01:36:18;4.45;;;1.70;;
50429;SDS011;36359;41.556;-8.418;2023-07-29T01:38:48;6.07;;;3.33;;
50429;SDS011;36359;41.556;-8.418;2023-07-29T01:41:16;6.15;;;2.70;;
50429;SDS011;36359;41.556;-8.418;2023-07-29T01:43:43;7.45;;;3.38;;
50429;SDS011;36359;41.556;-8.418;2023-07-29T01:46:12;4.35;;;1.90;;
50429;SDS011;36359;41.556;-8.418;2023-07-29T01:48:40;5.20;;;2.40;;
50429;SDS011;36359;41.556;-8.418;2023-07-29T01:51:06;3.35;;;1.80;;
50429;SDS011;36359;41.556;-8.418;2023-07-29T01:53:32;6.18;;;3.33;;
50429;SDS011;36359;41.556;-8.418;2023-07-29T01:55:58;5.40;;;3.35;;
50429;SDS011;36359;41.556;-8.418;2023-07-29T01:58:24;4.78;;;2.03;;
50429;SDS011;36359;41.556;-8.418;2023-07-29T02:00:50;4.70;;;2.90;;
50429;SDS011;36359;41.556;-8.418;2023-07-29T02:03:16;8.18;;;3.25;;
50429;SDS011;36359;41.556;-8.418;2023-07-29T02:05:42;7.53;;;3.42;;
50429;SDS011;36359;41.556;-8.418;2023-07-29T02:08:09;4.25;;;2.42;;
50429;SDS011;36359;41.556;-8.418;2023-07-29T02:10:36;3.90;;;2.00;;
50429;SDS011;36359;41.556;-8.418;2023-07-29T02:13:03;4.00;;;2.15;;
50429;SDS011;36359;41.556;-8.418;2023-07-29T02:15:29;4.95;;;2.47;;
50429;SDS011;36359;41.556;-8.418;2023-07-29T02:17:55;5.95;;;3.38;;
50429;SDS011;36359;41.556;-8.418;2023-07-29T02:20:21;3.70;;;2.50;;
50429;SDS011;36359;41.556;-8.418;2023-07-29T02:22:47;4.40;;;2.97;;
50429;SDS011;36359;41.556;-8.418;2023-07-29T02:25:14;3.88;;;2.35;;
50429;SDS011;36359;41.556;-8.418;2023-07-29T02:27:40;3.85;;;1.60;;
50429;SDS011;36359;41.556;-8.418;2023-07-29T02:30:06;4.68;;;1.77;;
50429;SDS011;36359;41.556;-8.418;2023-07-29T02:32:32;4.28;;;1.70;;
50429;SDS011;36359;41.556;-8.418;2023-07-29T02:34:58;3.72;;;1.50;;
50429;SDS011;36359;41.556;-8.418;2023-07-29T02:37:24;5.32;;;1.85;;
50429;SDS011;36359;41.556;-8.418;2023-07-29T02:39:49;2.30;;;1.60;;
50429;SDS011;36359;41.556;-8.418;2023-07-29T02:42:15;3.67;;;1.92;;
50429;SDS011;36359;41.556;-8.418;2023-07-29T02:44:41;2.45;;;1.77;;
50429;SDS011;36359;41.556;-8.418;2023-07-29T02:47:06;2.17;;;1.52;;
50429;SDS011;36359;41.556;-8.418;2023-07-29T02:49:32;3.65;;;1.83;;
50429;SDS011;36359;41.556;-8.418;2023-07-29T02:51:58;4.82;;;1.80;;
50429;SDS011;36359;41.556;-8.418;2023-07-29T02:54:24;2.35;;;1.80;;
50429;SDS011;36359;41.556;-8.418;2023-07-29T02:56:49;2.72;;;1.67;;
50429;SDS011;36359;41.556;-8.418;2023-07-29T02:59:15;2.30;;;1.65;;
50429;SDS011;36359;41.556;-8.418;2023-07-29T03:01:42;3.28;;;2.17;;
50429;SDS011;36359;41.556;-8.418;2023-07-29T03:04:08;6.10;;;1.88;;
50429;SDS011;36359;41.556;-8.418;2023-07-29T03:06:34;2.95;;;1.40;;
50429;SDS011;36359;41.556;-8.418;2023-07-29T03:09:00;2.90;;;1.58;;
50429;SDS011;36359;41.556;-8.418;2023-07-29T03:11:26;2.88;;;1.25;;
50429;SDS011;36359;41.556;-8.418;2023-07-29T03:13:52;3.75;;;1.90;;
50429;SDS011;36359;41.556;-8.418;2023-07-29T03:16:17;2.78;;;1.40;;
50429;SDS011;36359;41.556;-8.418;2023-07-29T03:18:51;5.50;;;1.85;;
50429;SDS011;36359;41.556;-8.418;2023-07-29T03:21:17;3.58;;;1.70;;
50429;SDS011;36359;41.556;-8.418;2023-07-29T03:23:43;5.38;;;1.75;;
50429;SDS011;36359;41.556;-8.418;2023-07-29T03:26:08;5.25;;;1.40;;
50429;SDS011;36359;41.556;-8.418;2023-07-29T03:28:40;3.70;;;1.80;;
50429;SDS011;36359;41.556;-8.418;2023-07-29T03:31:07;4.72;;;1.85;;
50429;SDS011;36359;41.556;-8.418;2023-07-29T03:33:33;2.63;;;1.60;;
50429;SDS011;36359;41.556;-8.418;2023-07-29T03:35:58;3.08;;;1.80;;
50429;SDS011;36359;41.556;-8.418;2023-07-29T03:38:25;3.17;;;1.77;;
50429;SDS011;36359;41.556;-8.418;2023-07-29T03:40:51;2.50;;;1.70;;
50429;SDS011;36359;41.556;-8.418;2023-07-29T03:43:16;2.53;;;1.45;;
50429;SDS011;36359;41.556;-8.418;2023-07-29T03:45:43;3.53;;;1.55;;
50429;SDS011;36359;41.556;-8.418;2023-07-29T03:48:09;3.90;;;1.70;;
50429;SDS011;36359;41.556;-8.418;2023-07-29T03:50:35;2.38;;;1.40;;
50429;SDS011;36359;41.556;-8.418;2023-07-29T03:53:02;5.18;;;1.92;;
50429;SDS011;36359;41.556;-8.418;2023-07-29T03:55:28;3.72;;;1.70;;
50429;SDS011;36359;41.556;-8.418;2023-07-29T03:57:57;3.92;;;2.30;;
50429;SDS011;36359;41.556;-8.418;2023-07-29T04:00:26;3.83;;;2.00;;
50429;SDS011;36359;41.556;-8.418;2023-07-29T04:02:52;3.75;;;1.90;;
50429;SDS011;36359;41.556;-8.418;2023-07-29T04:05:18;3.92;;;1.73;;
50429;SDS011;36359;41.556;-8.418;2023-07-29T04:07:45;5.32;;;2.05;;
50429;SDS011;36359;41.556;-8.418;2023-07-29T04:10:11;3.25;;;2.05;;
50429;SDS011;36359;41.556;-8.418;2023-07-29T04:12:37;2.33;;;1.17;;
50429;SDS011;36359;41.556;-8.418;2023-07-29T04:15:03;1.98;;;1.38;;
50429;SDS011;36359;41.556;-8.418;2023-07-29T04:17:30;2.60;;;1.38;;
50429;SDS011;36359;41.556;-8.418;2023-07-29T04:19:55;3.67;;;1.17;;
50429;SDS011;36359;41.556;-8.418;2023-07-29T04:22:26;1.20;;;0.95;;
50429;SDS011;36359;41.556;-8.418;2023-07-29T04:24:52;3.10;;;1.38;;
50429;SDS011;36359;41.556;-8.418;2023-07-29T04:27:19;4.30;;;1.40;;
50429;SDS011;36359;41.556;-8.418;2023-07-29T04:29:44;4.55;;;1.38;;
50429;SDS011;36359;41.556;-8.418;2023-07-29T04:32:10;3.72;;;1.15;;
50429;SDS011;36359;41.556;-8.418;2023-07-29T04:34:36;3.78;;;0.80;;
50429;SDS011;36359;41.556;-8.418;2023-07-29T04:37:01;1.83;;;1.27;;
50429;SDS011;36359;41.556;-8.418;2023-07-29T04:39:27;1.35;;;0.80;;
50429;SDS011;36359;41.556;-8.418;2023-07-29T04:41:53;1.30;;;0.80;;
50429;SDS011;36359;41.556;-8.418;2023-07-29T04:44:19;2.40;;;0.82;;
50429;SDS011;36359;41.556;-8.418;2023-07-29T04:46:45;1.45;;;0.90;;
50429;SDS011;36359;41.556;-8.418;2023-07-29T04:49:11;1.65;;;1.00;;
50429;SDS011;36359;41.556;-8.418;2023-07-29T04:51:37;1.30;;;1.00;;
50429;SDS011;36359;41.556;-8.418;2023-07-29T04:54:02;1.30;;;0.77;;
50429;SDS011;36359;41.556;-8.418;2023-07-29T04:56:28;2.08;;;0.98;;
50429;SDS011;36359;41.556;-8.418;2023-07-29T04:58:54;1.83;;;0.95;;
50429;SDS011;36359;41.556;-8.418;2023-07-29T05:01:20;2.17;;;1.33;;
50429;SDS011;36359;41.556;-8.418;2023-07-29T05:03:45;2.10;;;1.35;;
50429;SDS011;36359;41.556;-8.418;2023-07-29T05:06:12;2.58;;;1.17;;
50429;SDS011;36359;41.556;-8.418;2023-07-29T05:08:37;3.65;;;1.50;;
50429;SDS011;36359;41.556;-8.418;2023-07-29T05:11:03;3.55;;;1.83;;
50429;SDS011;36359;41.556;-8.418;2023-07-29T05:13:29;3.63;;;1.80;;
50429;SDS011;36359;41.556;-8.418;2023-07-29T05:15:55;3.78;;;1.65;;
50429;SDS011;36359;41.556;-8.418;2023-07-29T05:18:21;2.53;;;1.55;;
50429;SDS011;36359;41.556;-8.418;2023-07-29T05:20:48;4.72;;;1.65;;
50429;SDS011;36359;41.556;-8.418;2023-07-29T05:23:14;4.72;;;1.92;;
50429;SDS011;36359;41.556;-8.418;2023-07-29T05:25:40;5.72;;;2.97;;
50429;SDS011;36359;41.556;-8.418;2023-07-29T05:28:06;8.45;;;2.55;;
50429;SDS011;36359;41.556;-8.418;2023-07-29T05:30:32;2.45;;;1.75;;
50429;SDS011;36359;41.556;-8.418;2023-07-29T05:32:59;4.45;;;2.10;;
50429;SDS011;36359;41.556;-8.418;2023-07-29T05:35:26;5.45;;;2.08;;
50429;SDS011;36359;41.556;-8.418;2023-07-29T05:37:51;4.03;;;1.27;;
50429;SDS011;36359;41.556;-8.418;2023-07-29T05:40:17;4.30;;;1.67;;
50429;SDS011;36359;41.556;-8.418;2023-07-29T05:42:43;3.70;;;2.38;;
50429;SDS011;36359;41.556;-8.418;2023-07-29T05:45:11;7.13;;;2.38;;
50429;SDS011;36359;41.556;-8.418;2023-07-29T05:47:37;3.85;;;2.53;;
50429;SDS011;36359;41.556;-8.418;2023-07-29T05:50:03;4.25;;;2.80;;
50429;SDS011;36359;41.556;-8.418;2023-07-29T05:52:33;6.70;;;2.83;;
50429;SDS011;36359;41.556;-8.418;2023-07-29T05:54:59;7.80;;;3.22;;
50429;SDS011;36359;41.556;-8.418;2023-07-29T05:57:24;6.07;;;2.92;;
50429;SDS011;36359;41.556;-8.418;2023-07-29T05:59:50;7.40;;;2.88;;
50429;SDS011;36359;41.556;-8.418;2023-07-29T06:02:16;5.55;;;2.78;;
50429;SDS011;36359;41.556;-8.418;2023-07-29T06:04:42;7.95;;;3.15;;
50429;SDS011;36359;41.556;-8.418;2023-07-29T06:07:08;8.88;;;3.75;;
50429;SDS011;36359;41.556;-8.418;2023-07-29T06:09:34;6.63;;;3.28;;
50429;SDS011;36359;41.556;-8.418;2023-07-29T06:12:00;4.68;;;2.53;;
50429;SDS011;36359;41.556;-8.418;2023-07-29T06:14:26;4.55;;;2.10;;
50429;SDS011;36359;41.556;-8.418;2023-07-29T06:16:52;7.57;;;3.35;;
50429;SDS011;36359;41.556;-8.418;2023-07-29T06:19:18;7.75;;;3.35;;
50429;SDS011;36359;41.556;-8.418;2023-07-29T06:21:45;6.40;;;3.05;;
50429;SDS011;36359;41.556;-8.418;2023-07-29T06:24:11;5.88;;;2.90;;
50429;SDS011;36359;41.556;-8.418;2023-07-29T06:26:36;6.32;;;3.28;;
50429;SDS011;36359;41.556;-8.418;2023-07-29T06:29:02;6.68;;;3.70;;
50429;SDS011;36359;41.556;-8.418;2023-07-29T06:31:28;7.13;;;3.17;;
50429;SDS011;36359;41.556;-8.418;2023-07-29T06:33:54;7.25;;;3.20;;
50429;SDS011;36359;41.556;-8.418;2023-07-29T06:36:20;8.90;;;3.03;;
50429;SDS011;36359;41.556;-8.418;2023-07-29T06:38:46;6.68;;;2.78;;
50429;SDS011;36359;41.556;-8.418;2023-07-29T06:41:12;5.43;;;3.17;;
50429;SDS011;36359;41.556;-8.418;2023-07-29T06:43:37;6.05;;;2.75;;
50429;SDS011;36359;41.556;-8.418;2023-07-29T06:46:03;6.90;;;2.88;;
50429;SDS011;36359;41.556;-8.418;2023-07-29T06:48:29;4.43;;;2.80;;
50429;SDS011;36359;41.556;-8.418;2023-07-29T06:50:54;8.82;;;3.15;;
50429;SDS011;36359;41.556;-8.418;2023-07-29T06:53:21;6.95;;;3.20;;
50429;SDS011;36359;41.556;-8.418;2023-07-29T06:55:46;6.95;;;3.25;;
50429;SDS011;36359;41.556;-8.418;2023-07-29T06:58:12;3.22;;;2.08;;
50429;SDS011;36359;41.556;-8.418;2023-07-29T07:00:38;4.60;;;2.40;;
50429;SDS011;36359;41.556;-8.418;2023-07-29T07:03:04;7.10;;;3.15;;
50429;SDS011;36359;41.556;-8.418;2023-07-29T07:05:29;4.90;;;2.85;;
50429;SDS011;36359;41.556;-8.418;2023-07-29T07:07:55;3.95;;;2.30;;
50429;SDS011;36359;41.556;-8.418;2023-07-29T07:10:21;8.40;;;2.78;;
50429;SDS011;36359;41.556;-8.418;2023-07-29T07:12:48;3.47;;;1.40;;
50429;SDS011;36359;41.556;-8.418;2023-07-29T07:15:14;4.32;;;2.10;;
50429;SDS011;36359;41.556;-8.418;2023-07-29T07:17:39;3.53;;;1.48;;
50429;SDS011;36359;41.556;-8.418;2023-07-29T07:20:05;7.43;;;2.88;;
50429;SDS011;36359;41.556;-8.418;2023-07-29T07:22:32;5.15;;;2.83;;
50429;SDS011;36359;41.556;-8.418;2023-07-29T07:24:57;4.63;;;2.13;;
50429;SDS011;36359;41.556;-8.418;2023-07-29T07:27:23;5.15;;;2.67;;
50429;SDS011;36359;41.556;-8.418;2023-07-29T07:29:49;6.55;;;3.08;;
50429;SDS011;36359;41.556;-8.418;2023-07-29T07:32:14;5.60;;;3.10;;
50429;SDS011;36359;41.556;-8.418;2023-07-29T07:34:40;8.52;;;4.80;;
50429;SDS011;36359;41.556;-8.418;2023-07-29T07:37:06;5.15;;;3.10;;
50429;SDS011;36359;41.556;-8.418;2023-07-29T07:39:31;7.07;;;3.50;;
50429;SDS011;36359;41.556;-8.418;2023-07-29T07:41:57;7.78;;;3.05;;
50429;SDS011;36359;41.556;-8.418;2023-07-29T07:44:23;6.07;;;3.17;;
50429;SDS011;36359;41.556;-8.418;2023-07-29T07:46:52;8.32;;;3.15;;
50429;SDS011;36359;41.556;-8.418;2023-07-29T07:49:18;4.18;;;2.80;;
50429;SDS011;36359;41.556;-8.418;2023-07-29T07:51:44;4.65;;;1.77;;
50429;SDS011;36359;41.556;-8.418;2023-07-29T07:54:10;6.32;;;2.78;;
50429;SDS011;36359;41.556;-8.418;2023-07-29T07:56:35;4.97;;;2.85;;
50429;SDS011;36359;41.556;-8.418;2023-07-29T07:59:01;10.07;;;3.15;;
50429;SDS011;36359;41.556;-8.418;2023-07-29T08:01:27;4.47;;;1.42;;
50429;SDS011;36359;41.556;-8.418;2023-07-29T08:03:52;3.50;;;2.10;;
50429;SDS011;36359;41.556;-8.418;2023-07-29T08:06:18;7.60;;;3.22;;
50429;SDS011;36359;41.556;-8.418;2023-07-29T08:08:44;7.43;;;2.80;;
50429;SDS011;36359;41.556;-8.418;2023-07-29T08:11:09;7.57;;;2.55;;
50429;SDS011;36359;41.556;-8.418;2023-07-29T08:13:35;6.00;;;2.90;;
50429;SDS011;36359;41.556;-8.418;2023-07-29T08:16:00;5.43;;;2.53;;
50429;SDS011;36359;41.556;-8.418;2023-07-29T08:18:26;6.93;;;2.70;;
50429;SDS011;36359;41.556;-8.418;2023-07-29T08:20:55;6.35;;;2.72;;
50429;SDS011;36359;41.556;-8.418;2023-07-29T08:23:28;6.05;;;2.22;;
50429;SDS011;36359;41.556;-8.418;2023-07-29T08:25:59;4.55;;;2.05;;
50429;SDS011;36359;41.556;-8.418;2023-07-29T08:28:30;4.32;;;2.20;;
50429;SDS011;36359;41.556;-8.418;2023-07-29T08:30:57;6.43;;;3.00;;
50429;SDS011;36359;41.556;-8.418;2023-07-29T08:33:23;7.05;;;2.97;;
50429;SDS011;36359;41.556;-8.418;2023-07-29T08:35:49;9.50;;;3.05;;
50429;SDS011;36359;41.556;-8.418;2023-07-29T08:38:15;6.05;;;2.17;;
50429;SDS011;36359;41.556;-8.418;2023-07-29T08:43:55;7.40;;;2.72;;
50429;SDS011;36359;41.556;-8.418;2023-07-29T08:46:27;5.50;;;2.70;;
50429;SDS011;36359;41.556;-8.418;2023-07-29T08:51:35;3.47;;;1.75;;
50429;SDS011;36359;41.556;-8.418;2023-07-29T08:54:01;2.78;;;1.38;;
50429;SDS011;36359;41.556;-8.418;2023-07-29T08:56:27;3.75;;;1.25;;
50429;SDS011;36359;41.556;-8.418;2023-07-29T08:58:55;4.68;;;1.80;;
50429;SDS011;36359;41.556;-8.418;2023-07-29T09:01:21;4.57;;;1.75;;
50429;SDS011;36359;41.556;-8.418;2023-07-29T09:03:47;4.28;;;1.60;;
50429;SDS011;36359;41.556;-8.418;2023-07-29T09:06:12;4.10;;;1.67;;
50429;SDS011;36359;41.556;-8.418;2023-07-29T09:08:39;6.80;;;2.97;;
50429;SDS011;36359;41.556;-8.418;2023-07-29T09:11:06;6.53;;;2.83;;
50429;SDS011;36359;41.556;-8.418;2023-07-29T09:13:31;10.43;;;3.25;;
50429;SDS011;36359;41.556;-8.418;2023-07-29T09:15:57;6.32;;;2.55;;
50429;SDS011;36359;41.556;-8.418;2023-07-29T09:18:23;6.25;;;2.92;;
50429;SDS011;36359;41.556;-8.418;2023-07-29T09:20:52;3.90;;;2.00;;
50429;SDS011;36359;41.556;-8.418;2023-07-29T09:23:18;5.53;;;2.83;;
50429;SDS011;36359;41.556;-8.418;2023-07-29T09:25:47;2.65;;;1.50;;
50429;SDS011;36359;41.556;-8.418;2023-07-29T09:28:13;4.07;;;1.85;;
50429;SDS011;36359;41.556;-8.418;2023-07-29T09:30:41;3.83;;;2.20;;
50429;SDS011;36359;41.556;-8.418;2023-07-29T09:33:08;5.40;;;2.00;;
50429;SDS011;36359;41.556;-8.418;2023-07-29T09:35:35;2.25;;;1.35;;
50429;SDS011;36359;41.556;-8.418;2023-07-29T09:38:02;4.05;;;1.60;;
50429;SDS011;36359;41.556;-8.418;2023-07-29T09:40:35;2.15;;;1.42;;
50429;SDS011;36359;41.556;-8.418;2023-07-29T09:43:02;3.45;;;1.85;;
50429;SDS011;36359;41.556;-8.418;2023-07-29T09:45:29;3.10;;;1.40;;
50429;SDS011;36359;41.556;-8.418;2023-07-29T09:47:56;3.72;;;1.70;;
50429;SDS011;36359;41.556;-8.418;2023-07-29T09:50:23;4.70;;;1.88;;
50429;SDS011;36359;41.556;-8.418;2023-07-29T09:52:50;2.72;;;1.70;;
50429;SDS011;36359;41.556;-8.418;2023-07-29T09:55:17;5.32;;;2.40;;
50429;SDS011;36359;41.556;-8.418;2023-07-29T09:57:45;5.28;;;2.55;;
50429;SDS011;36359;41.556;-8.418;2023-07-29T10:00:11;6.20;;;2.38;;
50429;SDS011;36359;41.556;-8.418;2023-07-29T10:02:39;2.30;;;1.40;;
50429;SDS011;36359;41.556;-8.418;2023-07-29T10:05:06;5.03;;;1.88;;
50429;SDS011;36359;41.556;-8.418;2023-07-29T10:07:34;4.20;;;2.28;;
50429;SDS011;36359;41.556;-8.418;2023-07-29T10:10:03;5.25;;;2.22;;
50429;SDS011;36359;41.556;-8.418;2023-07-29T10:12:30;5.20;;;2.10;;
50429;SDS011;36359;41.556;-8.418;2023-07-29T10:15:04;5.25;;;2.00;;
50429;SDS011;36359;41.556;-8.418;2023-07-29T10:19:59;3.42;;;1.80;;
50429;SDS011;36359;41.556;-8.418;2023-07-29T10:22:32;2.70;;;1.27;;
50429;SDS011;36359;41.556;-8.418;2023-07-29T10:25:05;3.42;;;1.80;;
50429;SDS011;36359;41.556;-8.418;2023-07-29T10:27:52;4.22;;;1.80;;
50429;SDS011;36359;41.556;-8.418;2023-07-29T10:30:21;3.78;;;1.77;;
50429;SDS011;36359;41.556;-8.418;2023-07-29T10:32:47;3.58;;;1.60;;
50429;SDS011;36359;41.556;-8.418;2023-07-29T10:35:14;4.07;;;1.88;;
50429;SDS011;36359;41.556;-8.418;2023-07-29T10:37:41;3.10;;;1.63;;
50429;SDS011;36359;41.556;-8.418;2023-07-29T10:40:08;5.57;;;2.35;;
50429;SDS011;36359;41.556;-8.418;2023-07-29T10:42:36;4.93;;;2.20;;
50429;SDS011;36359;41.556;-8.418;2023-07-29T10:45:19;4.78;;;1.77;;
50429;SDS011;36359;41.556;-8.418;2023-07-29T10:47:46;5.57;;;1.65;;
50429;SDS011;36359;41.556;-8.418;2023-07-29T10:50:19;3.13;;;1.30;;
50429;SDS011;36359;41.556;-8.418;2023-07-29T10:52:53;4.07;;;1.95;;
50429;SDS011;36359;41.556;-8.418;2023-07-29T10:58:16;3.97;;;1.63;;
50429;SDS011;36359;41.556;-8.418;2023-07-29T11:00:50;10.18;;;2.08;;
50429;SDS011;36359;41.556;-8.418;2023-07-29T11:03:15;9.43;;;2.58;;
50429;SDS011;36359;41.556;-8.418;2023-07-29T11:05:48;2.78;;;1.42;;
50429;SDS011;36359;41.556;-8.418;2023-07-29T11:08:18;4.47;;;1.90;;
50429;SDS011;36359;41.556;-8.418;2023-07-29T11:13:30;3.47;;;1.75;;
50429;SDS011;36359;41.556;-8.418;2023-07-29T11:15:57;3.75;;;1.35;;
50429;SDS011;36359;41.556;-8.418;2023-07-29T11:18:32;4.80;;;1.92;;
50429;SDS011;36359;41.556;-8.418;2023-07-29T11:20:59;3.28;;;1.73;;
50429;SDS011;36359;41.556;-8.418;2023-07-29T11:23:33;5.32;;;2.40;;
50429;SDS011;36359;41.556;-8.418;2023-07-29T11:26:00;6.57;;;2.53;;
50429;SDS011;36359;41.556;-8.418;2023-07-29T11:28:26;4.35;;;2.03;;
50429;SDS011;36359;41.556;-8.418;2023-07-29T11:30:56;4.72;;;2.30;;
50429;SDS011;36359;41.556;-8.418;2023-07-29T11:33:23;3.90;;;2.28;;
50429;SDS011;36359;41.556;-8.418;2023-07-29T11:35:51;5.05;;;2.08;;
50429;SDS011;36359;41.556;-8.418;2023-07-29T11:38:18;4.38;;;1.73;;
50429;SDS011;36359;41.556;-8.418;2023-07-29T11:40:55;4.88;;;1.65;;
50429;SDS011;36359;41.556;-8.418;2023-07-29T11:43:21;4.68;;;1.85;;
50429;SDS011;36359;41.556;-8.418;2023-07-29T11:45:47;2.03;;;1.25;;
50429;SDS011;36359;41.556;-8.418;2023-07-29T11:48:13;6.93;;;2.08;;
50429;SDS011;36359;41.556;-8.418;2023-07-29T11:50:38;5.20;;;2.25;;
50429;SDS011;36359;41.556;-8.418;2023-07-29T11:53:04;5.03;;;1.90;;
50429;SDS011;36359;41.556;-8.418;2023-07-29T11:55:30;3.17;;;1.80;;
50429;SDS011;36359;41.556;-8.418;2023-07-29T11:57:56;2.95;;;1.77;;
50429;SDS011;36359;41.556;-8.418;2023-07-29T12:00:22;5.07;;;2.08;;
50429;SDS011;36359;41.556;-8.418;2023-07-29T12:02:48;4.88;;;1.90;;
50429;SDS011;36359;41.556;-8.418;2023-07-29T12:05:15;2.65;;;1.40;;
50429;SDS011;36359;41.556;-8.418;2023-07-29T12:07:42;3.97;;;1.60;;
50429;SDS011;36359;41.556;-8.418;2023-07-29T12:10:09;4.28;;;1.70;;
50429;SDS011;36359;41.556;-8.418;2023-07-29T12:12:49;4.20;;;1.60;;
50429;SDS011;36359;41.556;-8.418;2023-07-29T12:15:28;5.20;;;1.73;;
50429;SDS011;36359;41.556;-8.418;2023-07-29T12:17:58;4.03;;;1.70;;
50429;SDS011;36359;41.556;-8.418;2023-07-29T12:22:54;4.57;;;1.88;;
50429;SDS011;36359;41.556;-8.418;2023-07-29T12:25:21;4.43;;;2.05;;
50429;SDS011;36359;41.556;-8.418;2023-07-29T12:27:47;3.85;;;1.83;;
50429;SDS011;36359;41.556;-8.418;2023-07-29T12:30:13;3.08;;;1.35;;
50429;SDS011;36359;41.556;-8.418;2023-07-29T12:32:46;3.83;;;1.60;;
50429;SDS011;36359;41.556;-8.418;2023-07-29T12:35:12;4.13;;;1.20;;
50429;SDS011;36359;41.556;-8.418;2023-07-29T12:37:39;3.47;;;1.00;;
50429;SDS011;36359;41.556;-8.418;2023-07-29T12:40:29;3.88;;;1.70;;
50429;SDS011;36359;41.556;-8.418;2023-07-29T12:42:54;3.97;;;1.80;;
50429;SDS011;36359;41.556;-8.418;2023-07-29T12:45:20;4.03;;;2.10;;
50429;SDS011;36359;41.556;-8.418;2023-07-29T12:47:48;3.17;;;1.52;;
50429;SDS011;36359;41.556;-8.418;2023-07-29T12:50:14;5.72;;;2.08;;
50429;SDS011;36359;41.556;-8.418;2023-07-29T12:52:39;2.70;;;1.80;;
50429;SDS011;36359;41.556;-8.418;2023-07-29T12:55:05;3.40;;;1.67;;
50429;SDS011;36359;41.556;-8.418;2023-07-29T12:57:34;2.40;;;1.55;;
50429;SDS011;36359;41.556;-8.418;2023-07-29T13:00:01;3.00;;;1.45;;
50429;SDS011;36359;41.556;-8.418;2023-07-29T13:02:27;2.40;;;1.20;;
50429;SDS011;36359;41.556;-8.418;2023-07-29T13:04:53;2.85;;;1.58;;
50429;SDS011;36359;41.556;-8.418;2023-07-29T13:07:18;2.63;;;1.52;;
50429;SDS011;36359;41.556;-8.418;2023-07-29T13:09:44;3.42;;;1.25;;
50429;SDS011;36359;41.556;-8.418;2023-07-29T13:12:10;3.67;;;1.48;;
50429;SDS011;36359;41.556;-8.418;2023-07-29T13:14:35;1.70;;;1.17;;
50429;SDS011;36359;41.556;-8.418;2023-07-29T13:17:01;1.48;;;1.00;;
50429;SDS011;36359;41.556;-8.418;2023-07-29T13:19:27;2.10;;;1.17;;
50429;SDS011;36359;41.556;-8.418;2023-07-29T13:21:52;4.18;;;1.50;;
50429;SDS011;36359;41.556;-8.418;2023-07-29T13:24:18;2.45;;;1.30;;
50429;SDS011;36359;41.556;-8.418;2023-07-29T13:26:43;2.47;;;1.27;;
50429;SDS011;36359;41.556;-8.418;2023-07-29T13:29:09;3.28;;;1.45;;
50429;SDS011;36359;41.556;-8.418;2023-07-29T13:31:35;3.60;;;1.00;;
50429;SDS011;36359;41.556;-8.418;2023-07-29T13:34:00;5.22;;;1.42;;
50429;SDS011;36359;41.556;-8.418;2023-07-29T13:36:26;2.78;;;0.90;;
50429;SDS011;36359;41.556;-8.418;2023-07-29T13:38:52;3.80;;;1.20;;
50429;SDS011;36359;41.556;-8.418;2023-07-29T13:41:17;3.47;;;1.42;;
50429;SDS011;36359;41.556;-8.418;2023-07-29T13:43:43;3.38;;;0.95;;
50429;SDS011;36359;41.556;-8.418;2023-07-29T13:46:09;1.58;;;0.90;;
50429;SDS011;36359;41.556;-8.418;2023-07-29T13:48:34;1.85;;;1.00;;
50429;SDS011;36359;41.556;-8.418;2023-07-29T13:51:08;2.78;;;1.23;;
50429;SDS011;36359;41.556;-8.418;2023-07-29T13:53:33;3.08;;;1.00;;
50429;SDS011;36359;41.556;-8.418;2023-07-29T13:55:59;1.50;;;0.95;;
50429;SDS011;36359;41.556;-8.418;2023-07-29T13:58:25;4.47;;;1.20;;
50429;SDS011;36359;41.556;-8.418;2023-07-29T14:00:51;3.70;;;1.15;;
50429;SDS011;36359;41.556;-8.418;2023-07-29T14:03:16;4.55;;;1.50;;
50429;SDS011;36359;41.556;-8.418;2023-07-29T14:05:42;2.50;;;1.05;;
50429;SDS011;36359;41.556;-8.418;2023-07-29T14:08:08;2.63;;;0.70;;
50429;SDS011;36359;41.556;-8.418;2023-07-29T14:10:33;1.77;;;0.85;;
50429;SDS011;36359;41.556;-8.418;2023-07-29T14:13:20;5.68;;;1.45;;
50429;SDS011;36359;41.556;-8.418;2023-07-29T14:15:45;2.42;;;1.00;;
50429;SDS011;36359;41.556;-8.418;2023-07-29T14:18:10;1.80;;;0.90;;
50429;SDS011;36359;41.556;-8.418;2023-07-29T14:20:36;1.95;;;0.90;;
50429;SDS011;36359;41.556;-8.418;2023-07-29T14:23:02;4.25;;;1.20;;
50429;SDS011;36359;41.556;-8.418;2023-07-29T14:25:28;1.40;;;0.80;;
50429;SDS011;36359;41.556;-8.418;2023-07-29T14:27:53;1.55;;;0.70;;
50429;SDS011;36359;41.556;-8.418;2023-07-29T14:30:19;2.92;;;1.05;;
50429;SDS011;36359;41.556;-8.418;2023-07-29T14:32:45;4.35;;;1.30;;
50429;SDS011;36359;41.556;-8.418;2023-07-29T14:35:10;3.88;;;1.52;;
50429;SDS011;36359;41.556;-8.418;2023-07-29T14:37:36;2.15;;;0.75;;
50429;SDS011;36359;41.556;-8.418;2023-07-29T14:40:02;2.08;;;1.00;;
50429;SDS011;36359;41.556;-8.418;2023-07-29T14:42:28;1.88;;;0.88;;
50429;SDS011;36359;41.556;-8.418;2023-07-29T14:44:54;1.42;;;0.80;;
50429;SDS011;36359;41.556;-8.418;2023-07-29T14:47:20;4.28;;;1.15;;
50429;SDS011;36359;41.556;-8.418;2023-07-29T14:49:46;8.13;;;1.90;;
50429;SDS011;36359;41.556;-8.418;2023-07-29T14:52:12;5.00;;;0.98;;
50429;SDS011;36359;41.556;-8.418;2023-07-29T14:54:37;1.33;;;0.52;;
50429;SDS011;36359;41.556;-8.418;2023-07-29T14:57:05;2.30;;;0.60;;